createdAt,value
2018-11-11T00:02:29.404Z,12.93
2018-11-11T00:05:05.258Z,13.00
2018-11-11T00:07:41.568Z,12.17
2018-11-11T00:10:16.840Z,12.43
2018-11-11T00:12:51.647Z,13.47
2018-11-11T00:15:26.520Z,12.63
2018-11-11T00:18:01.843Z,12.57
2018-11-11T00:20:37.021Z,12.13
2018-11-11T00:23:12.950Z,12.90
2018-11-11T00:25:48.201Z,12.80
2018-11-11T00:28:23.000Z,12.70
2018-11-11T00:30:58.083Z,12.67
2018-11-11T00:33:33.261Z,13.20
2018-11-11T00:36:10.356Z,12.57
2018-11-11T00:38:45.550Z,12.23
2018-11-11T00:41:20.339Z,12.77
2018-11-11T00:43:55.182Z,13.60
2018-11-11T00:46:29.876Z,13.23
2018-11-11T00:49:04.871Z,13.23
2018-11-11T00:51:39.481Z,12.73
2018-11-11T00:54:16.729Z,13.43
2018-11-11T00:56:51.842Z,14.47
2018-11-11T00:59:26.823Z,13.80
2018-11-11T01:02:02.964Z,13.50
2018-11-11T01:04:38.106Z,14.77
2018-11-11T01:07:12.932Z,14.83
2018-11-11T01:09:48.218Z,14.80
2018-11-11T01:12:22.984Z,17.13
2018-11-11T01:14:57.959Z,16.70
2018-11-11T01:17:32.972Z,16.27
2018-11-11T01:20:11.039Z,16.60
2018-11-11T01:22:47.472Z,16.57
2018-11-11T01:25:22.280Z,16.70
2018-11-11T01:27:59.631Z,16.53
2018-11-11T01:30:34.708Z,17.03
2018-11-11T01:33:09.986Z,16.83
2018-11-11T01:35:46.255Z,17.40
2018-11-11T01:38:21.114Z,17.80
2018-11-11T01:40:57.538Z,17.17
2018-11-11T01:43:34.052Z,17.20
2018-11-11T01:46:10.251Z,17.17
2018-11-11T01:48:45.442Z,17.63
2018-11-11T01:51:21.767Z,17.93
2018-11-11T01:53:57.424Z,16.70
2018-11-11T01:56:33.066Z,16.60
2018-11-11T01:59:08.443Z,17.20
2018-11-11T02:01:43.502Z,16.83
2018-11-11T02:04:18.514Z,17.97
2018-11-11T02:06:53.623Z,17.50
2018-11-11T02:09:30.067Z,18.57
2018-11-11T02:12:09.225Z,18.70
2018-11-11T02:14:44.944Z,18.80
2018-11-11T02:17:19.850Z,18.60
2018-11-11T02:19:54.928Z,19.27
2018-11-11T02:22:31.073Z,17.60
2018-11-11T02:25:08.087Z,18.30
2018-11-11T02:27:45.300Z,18.07
2018-11-11T02:30:23.188Z,18.27
2018-11-11T02:32:59.182Z,17.90
2018-11-11T02:35:34.091Z,17.23
2018-11-11T02:38:09.551Z,17.80
2018-11-11T02:40:45.572Z,18.27
2018-11-11T02:43:20.507Z,17.93
2018-11-11T02:45:55.338Z,17.80
2018-11-11T02:48:30.177Z,18.13
2018-11-11T02:51:07.725Z,18.57
2018-11-11T02:53:42.653Z,18.07
2018-11-11T02:56:17.665Z,16.90
2018-11-11T02:58:53.154Z,17.13
2018-11-11T03:01:28.105Z,16.57
2018-11-11T03:04:03.972Z,16.30
2018-11-11T03:06:38.660Z,17.47
2018-11-11T03:09:16.712Z,18.13
2018-11-11T03:11:51.664Z,18.07
2018-11-11T03:14:26.557Z,16.83
2018-11-11T03:17:02.919Z,17.63
2018-11-11T03:19:37.911Z,19.50
2018-11-11T03:22:12.936Z,18.87
2018-11-11T03:24:48.048Z,17.20
2018-11-11T03:27:22.864Z,17.87
2018-11-11T03:29:57.885Z,17.03
2018-11-11T03:32:32.754Z,17.50
2018-11-11T03:35:10.116Z,16.50
2018-11-11T03:37:45.910Z,17.33
2018-11-11T03:40:21.499Z,17.43
2018-11-11T03:42:57.027Z,17.93
2018-11-11T03:45:35.763Z,17.07
2018-11-11T03:48:11.627Z,18.27
2018-11-11T03:50:46.346Z,18.33
2018-11-11T03:53:21.283Z,17.70
2018-11-11T03:55:56.259Z,16.37
2018-11-11T03:58:31.087Z,18.23
2018-11-11T04:01:07.083Z,17.37
2018-11-11T04:03:45.165Z,29.43
2018-11-11T04:06:20.271Z,18.53
2018-11-11T04:08:55.204Z,17.60
2018-11-11T04:11:30.695Z,17.87
2018-11-11T04:14:09.531Z,17.03
2018-11-11T04:16:44.267Z,19.97
2018-11-11T04:19:19.344Z,17.60
2018-11-11T04:21:53.658Z,18.50
2018-11-11T04:24:30.461Z,17.60
2018-11-11T04:27:05.750Z,17.73
2018-11-11T04:29:42.155Z,17.90
2018-11-11T04:32:17.741Z,17.87
2018-11-11T04:34:54.601Z,17.50
2018-11-11T04:37:29.659Z,16.53
2018-11-11T04:40:06.966Z,16.10
2018-11-11T04:42:43.457Z,16.90
2018-11-11T04:45:19.115Z,15.03
2018-11-11T04:47:54.026Z,16.07
2018-11-11T04:50:28.864Z,15.87
2018-11-11T04:53:04.116Z,16.13
2018-11-11T04:55:39.244Z,16.67
2018-11-11T04:58:14.090Z,15.73
2018-11-11T05:00:48.731Z,15.20
2018-11-11T05:03:23.874Z,15.47
2018-11-11T05:05:58.745Z,15.37
2018-11-11T05:08:34.842Z,16.50
2018-11-11T05:11:11.313Z,15.67
2018-11-11T05:13:46.064Z,15.87
2018-11-11T05:16:20.956Z,16.47
2018-11-11T05:18:57.337Z,15.70
2018-11-11T05:21:32.435Z,16.37
2018-11-11T05:24:07.700Z,16.30
2018-11-11T05:26:42.907Z,16.57
2018-11-11T05:29:17.970Z,15.77
2018-11-11T05:31:53.001Z,16.30
2018-11-11T05:34:29.018Z,14.80
2018-11-11T05:37:06.040Z,14.80
2018-11-11T05:39:42.530Z,14.13
2018-11-11T05:42:17.483Z,14.73
2018-11-11T05:44:52.362Z,17.43
2018-11-11T05:47:28.201Z,16.07
2018-11-11T05:50:02.966Z,14.90
2018-11-11T05:52:41.639Z,16.27
2018-11-11T05:55:16.407Z,14.90
2018-11-11T05:57:50.953Z,15.00
2018-11-11T06:00:25.990Z,15.70
2018-11-11T06:03:05.246Z,15.43
2018-11-11T06:05:39.887Z,14.77
2018-11-11T06:08:14.593Z,14.37
2018-11-11T06:10:49.327Z,14.70
2018-11-11T06:13:23.870Z,14.40
2018-11-11T06:15:59.111Z,14.77
2018-11-11T06:18:34.177Z,15.43
2018-11-11T06:21:08.814Z,14.73
2018-11-11T06:23:43.472Z,15.40
2018-11-11T06:26:18.214Z,14.40
2018-11-11T06:28:52.896Z,15.13
2018-11-11T06:31:27.726Z,16.07
2018-11-11T06:34:02.478Z,14.10
2018-11-11T06:36:37.244Z,12.67
2018-11-11T06:39:12.786Z,12.93
2018-11-11T06:41:47.500Z,13.10
2018-11-11T06:44:22.191Z,12.90
2018-11-11T06:46:56.905Z,12.53
2018-11-11T06:49:31.404Z,12.70
2018-11-11T06:52:06.188Z,12.57
2018-11-11T06:54:40.962Z,13.10
2018-11-11T06:57:15.908Z,13.20
2018-11-11T06:59:50.278Z,12.60
2018-11-11T07:02:31.916Z,13.70
2018-11-11T07:05:07.823Z,13.33
2018-11-11T07:07:42.569Z,14.37
2018-11-11T07:10:17.279Z,15.83
2018-11-11T07:12:51.946Z,17.77
2018-11-11T07:15:26.697Z,13.80
2018-11-11T07:18:01.501Z,15.10
2018-11-11T07:20:36.309Z,14.40
2018-11-11T07:23:11.285Z,15.00
2018-11-11T07:25:46.062Z,16.20
2018-11-11T07:28:21.326Z,16.37
2018-11-11T07:30:55.835Z,15.43
2018-11-11T07:33:31.065Z,15.40
2018-11-11T07:36:06.775Z,14.87
2018-11-11T07:38:41.677Z,15.13
2018-11-11T07:41:16.367Z,15.10
2018-11-11T07:43:51.158Z,15.13
2018-11-11T07:46:25.791Z,14.23
2018-11-11T07:49:00.547Z,13.73
2018-11-11T07:51:35.613Z,14.53
2018-11-11T07:54:10.519Z,14.00
2018-11-11T07:56:45.318Z,13.57
2018-11-11T07:59:20.844Z,13.10
2018-11-11T08:01:55.437Z,13.40
2018-11-11T08:04:31.468Z,12.13
2018-11-11T08:07:06.521Z,13.13
2018-11-11T08:09:41.170Z,12.43
2018-11-11T08:12:15.866Z,12.60
2018-11-11T08:14:50.880Z,13.00
2018-11-11T08:17:26.065Z,12.50
2018-11-11T08:20:01.985Z,12.87
2018-11-11T08:22:36.983Z,12.83
2018-11-11T08:25:11.614Z,13.17
2018-11-11T08:27:46.268Z,13.00
2018-11-11T08:30:20.936Z,13.80
2018-11-11T08:32:56.057Z,14.27
2018-11-11T08:35:31.222Z,14.23
2018-11-11T08:38:06.025Z,13.50
2018-11-11T08:40:41.303Z,13.47
2018-11-11T08:43:16.026Z,13.50
2018-11-11T08:45:50.792Z,14.90
2018-11-11T08:48:25.493Z,19.27
2018-11-11T08:51:00.135Z,15.67
2018-11-11T08:53:34.792Z,12.93
2018-11-11T08:56:09.459Z,12.23
2018-11-11T08:58:44.494Z,13.23
2018-11-11T09:01:19.247Z,12.43
2018-11-11T09:03:54.149Z,13.27
2018-11-11T09:06:28.685Z,13.93
2018-11-11T09:09:03.496Z,24.43
2018-11-11T09:11:38.290Z,23.93
2018-11-11T09:14:13.057Z,17.70
2018-11-11T09:16:47.812Z,13.23
2018-11-11T09:19:22.613Z,12.27
2018-11-11T09:21:57.421Z,12.67
2018-11-11T09:24:32.130Z,29.73
2018-11-11T09:27:06.893Z,31.57
2018-11-11T09:29:41.743Z,27.30
2018-11-11T09:32:16.570Z,32.17
2018-11-11T09:34:51.173Z,29.43
2018-11-11T09:37:25.799Z,28.93
2018-11-11T09:40:00.597Z,26.80
2018-11-11T09:42:36.650Z,16.30
2018-11-11T09:45:16.532Z,12.43
2018-11-11T09:47:51.198Z,12.43
2018-11-11T09:50:26.103Z,9.43
2018-11-11T09:53:00.942Z,9.70
2018-11-11T09:55:35.871Z,9.10
2018-11-11T09:58:10.590Z,9.13
2018-11-11T10:00:45.241Z,10.50
2018-11-11T10:03:25.993Z,10.90
2018-11-11T10:08:11.039Z,11.67
2018-11-11T10:10:52.267Z,10.57
2018-11-11T10:13:31.661Z,10.43
2018-11-11T10:16:45.250Z,8.23
2018-11-11T10:19:24.800Z,10.13
2018-11-11T10:22:12.053Z,10.07
2018-11-11T10:26:53.937Z,21.67
2018-11-11T10:29:33.740Z,7.27
2018-11-11T10:32:23.973Z,8.90
2018-11-11T10:35:35.681Z,8.70
2018-11-11T10:38:17.904Z,8.20
2018-11-11T10:40:58.070Z,7.13
2018-11-11T10:43:40.521Z,6.93
2018-11-11T10:46:22.433Z,6.60
2018-11-11T10:49:00.100Z,6.83
2018-11-11T10:51:34.707Z,6.33
2018-11-11T10:54:09.693Z,7.13
2018-11-11T10:56:44.225Z,7.03
2018-11-11T10:59:18.768Z,7.13
2018-11-11T11:01:58.537Z,7.27
2018-11-11T11:04:33.078Z,5.90
2018-11-11T11:07:07.598Z,6.30
2018-11-11T11:09:42.107Z,5.73
2018-11-11T11:12:16.871Z,5.40
2018-11-11T11:14:51.662Z,5.20
2018-11-11T11:17:26.331Z,4.80
2018-11-11T11:20:00.994Z,5.33
2018-11-11T11:22:35.841Z,5.10
2018-11-11T11:25:11.497Z,4.80
2018-11-11T11:27:46.147Z,5.07
2018-11-11T11:30:20.890Z,6.43
2018-11-11T11:32:55.690Z,6.00
2018-11-11T11:35:30.498Z,5.50
2018-11-11T11:38:05.369Z,4.50
2018-11-11T11:40:39.864Z,4.70
2018-11-11T11:43:14.552Z,4.33
2018-11-11T11:45:48.964Z,4.70
2018-11-11T11:48:23.962Z,5.23
2018-11-11T11:51:00.783Z,5.70
2018-11-11T11:53:36.163Z,6.80
2018-11-11T11:56:10.852Z,6.97
2018-11-11T11:58:45.443Z,7.10
2018-11-11T12:01:19.852Z,6.97
2018-11-11T12:03:54.437Z,6.67
2018-11-11T12:06:33.074Z,6.13
2018-11-11T12:09:09.129Z,6.37
2018-11-11T12:11:43.783Z,6.37
2018-11-11T12:14:18.200Z,6.17
2018-11-11T12:16:53.420Z,6.43
2018-11-11T12:19:27.920Z,6.60
2018-11-11T12:22:02.548Z,6.37
2018-11-11T12:24:37.574Z,6.57
2018-11-11T12:27:12.073Z,7.20
2018-11-11T12:29:47.002Z,12.40
2018-11-11T12:32:21.615Z,10.37
2018-11-11T12:34:56.131Z,6.80
2018-11-11T12:37:30.518Z,6.20
2018-11-11T12:40:06.205Z,6.33
2018-11-11T12:42:41.870Z,6.60
2018-11-11T12:45:16.504Z,6.43
2018-11-11T12:47:51.094Z,5.67
2018-11-11T12:50:25.611Z,5.90
2018-11-11T12:53:10.039Z,8.87
2018-11-11T12:55:44.744Z,25.37
2018-11-11T12:58:19.360Z,7.23
2018-11-11T13:00:54.102Z,7.43
2018-11-11T13:03:28.546Z,6.50
2018-11-11T13:06:03.118Z,6.40
2018-11-11T13:08:38.263Z,5.80
2018-11-11T13:11:13.355Z,5.47
2018-11-11T13:13:48.037Z,4.50
2018-11-11T13:16:22.948Z,4.77
2018-11-11T13:18:57.621Z,4.03
2018-11-11T13:21:32.216Z,4.60
2018-11-11T13:24:07.399Z,4.20
2018-11-11T13:26:42.151Z,4.10
2018-11-11T13:29:16.824Z,4.10
2018-11-11T13:31:52.086Z,4.83
2018-11-11T13:34:26.673Z,4.63
2018-11-11T13:37:01.159Z,4.93
2018-11-11T13:39:35.716Z,4.37
2018-11-11T13:42:10.230Z,4.30
2018-11-11T13:44:44.799Z,4.00
2018-11-11T13:47:19.574Z,4.03
2018-11-11T13:49:54.091Z,4.53
2018-11-11T13:52:28.670Z,4.53
2018-11-11T13:55:05.064Z,4.30
2018-11-11T13:57:39.602Z,4.57
2018-11-11T14:00:19.550Z,4.53
2018-11-11T14:07:50.343Z,4.70
2018-11-11T14:20:15.116Z,3.77
2018-11-11T14:23:19.303Z,4.10
2018-11-11T14:25:56.887Z,3.30
2018-11-11T14:29:05.655Z,3.30
2018-11-11T14:43:01.446Z,3.97
2018-11-11T14:45:37.244Z,3.10
2018-11-11T14:48:17.757Z,2.60
2018-11-11T14:50:52.212Z,2.70
2018-11-11T14:53:27.013Z,2.50
2018-11-11T14:56:03.777Z,2.63
2018-11-11T14:58:38.667Z,2.30
2018-11-11T15:01:13.857Z,2.00
2018-11-11T15:03:51.155Z,2.33
2018-11-11T15:06:25.839Z,2.10
2018-11-11T15:09:00.629Z,2.20
2018-11-11T15:11:35.366Z,2.30
2018-11-11T15:14:10.527Z,2.20
2018-11-11T15:16:45.162Z,2.57
2018-11-11T15:19:19.549Z,2.17
2018-11-11T15:21:54.295Z,2.37
2018-11-11T15:24:29.026Z,2.40
2018-11-11T15:27:03.684Z,2.47
2018-11-11T15:29:38.675Z,1.90
2018-11-11T15:32:13.401Z,1.90
2018-11-11T15:34:48.028Z,1.80
2018-11-11T15:37:22.796Z,1.70
2018-11-11T15:39:57.267Z,2.10
2018-11-11T15:42:32.047Z,1.73
2018-11-11T15:45:09.759Z,1.70
2018-11-11T15:47:47.308Z,1.83
2018-11-11T15:50:23.220Z,2.00
2018-11-11T15:52:59.004Z,1.90
2018-11-11T15:55:35.613Z,2.77
2018-11-11T15:58:10.346Z,2.80
2018-11-11T16:00:45.084Z,3.40
2018-11-11T16:03:19.834Z,6.00
2018-11-11T16:05:54.254Z,6.30
2018-11-11T16:08:29.817Z,5.30
2018-11-11T16:11:04.380Z,6.30
2018-11-11T16:13:38.945Z,6.47
2018-11-11T16:16:13.606Z,6.97
2018-11-11T16:18:53.349Z,7.20
2018-11-11T16:21:28.040Z,11.33
2018-11-11T16:24:04.072Z,7.87
2018-11-11T16:26:45.050Z,8.63
2018-11-11T16:29:19.788Z,12.03
2018-11-11T16:31:54.258Z,34.63
2018-11-11T16:34:28.941Z,35.70
2018-11-11T16:37:03.770Z,19.30
2018-11-11T16:39:38.442Z,18.63
2018-11-11T16:42:12.737Z,15.17
2018-11-11T16:44:47.355Z,15.03
2018-11-11T16:47:21.983Z,11.50
2018-11-11T16:49:56.454Z,14.43
2018-11-11T16:52:33.385Z,14.13
2018-11-11T16:55:08.976Z,14.27
2018-11-11T16:57:43.830Z,12.67
2018-11-11T17:00:20.703Z,10.47
2018-11-11T17:02:55.867Z,10.00
2018-11-11T17:05:31.780Z,12.20
2018-11-11T17:08:06.633Z,11.10
2018-11-11T17:10:42.299Z,12.27
2018-11-11T17:13:18.261Z,10.80
2018-11-11T17:15:54.596Z,11.90
2018-11-11T17:18:29.730Z,13.13
2018-11-11T17:21:05.462Z,22.07
2018-11-11T17:23:40.755Z,31.73
2018-11-11T17:26:15.360Z,33.13
2018-11-11T17:28:49.926Z,17.70
2018-11-11T17:31:24.667Z,13.13
2018-11-11T17:33:59.562Z,13.07
2018-11-11T17:36:34.202Z,33.27
2018-11-11T17:39:10.195Z,30.40
2018-11-11T17:41:44.756Z,41.83
2018-11-11T17:44:19.358Z,48.77
2018-11-11T17:46:56.027Z,33.13
2018-11-11T17:49:30.753Z,31.97
2018-11-11T17:52:05.761Z,30.70
2018-11-11T17:54:40.976Z,29.00
2018-11-11T17:57:17.361Z,26.27
2018-11-11T17:59:51.969Z,26.53
2018-11-11T18:02:26.562Z,17.13
2018-11-11T18:05:01.197Z,16.53
2018-11-11T18:07:35.767Z,13.63
2018-11-11T18:10:12.607Z,12.00
2018-11-11T18:12:47.172Z,11.03
2018-11-11T18:15:23.160Z,11.70
2018-11-11T18:17:57.830Z,12.33
2018-11-11T18:20:33.154Z,13.23
2018-11-11T18:23:07.659Z,16.03
2018-11-11T18:25:42.022Z,23.07
2018-11-11T18:28:18.217Z,27.27
2018-11-11T18:30:52.558Z,20.80
2018-11-11T18:33:27.111Z,20.17
2018-11-11T18:36:02.172Z,17.90
2018-11-11T18:38:36.848Z,15.73
2018-11-11T18:41:11.582Z,15.37
2018-11-11T18:43:46.040Z,14.33
2018-11-11T18:46:20.394Z,16.63
2018-11-11T18:48:54.688Z,15.47
2018-11-11T18:51:29.173Z,17.37
2018-11-11T18:54:03.659Z,16.33
2018-11-11T18:56:37.964Z,16.90
2018-11-11T18:59:12.602Z,16.40
2018-11-11T19:01:47.098Z,16.03
2018-11-11T19:04:21.470Z,29.27
2018-11-11T19:06:55.947Z,25.50
2018-11-11T19:09:30.368Z,21.43
2018-11-11T19:12:06.104Z,21.73
2018-11-11T19:14:42.511Z,21.87
2018-11-11T19:17:17.461Z,22.97
2018-11-11T19:19:52.181Z,24.33
2018-11-11T19:22:30.881Z,23.67
2018-11-11T19:25:08.002Z,21.93
2018-11-11T19:27:43.910Z,21.60
2018-11-11T19:30:19.654Z,21.97
2018-11-11T19:32:55.732Z,20.80
2018-11-11T19:35:30.572Z,21.07
2018-11-11T19:38:05.334Z,21.27
2018-11-11T19:40:40.162Z,22.43
2018-11-11T19:43:18.453Z,25.90
2018-11-11T19:45:53.951Z,23.60
2018-11-11T19:48:29.890Z,20.67
2018-11-11T19:51:06.096Z,18.50
2018-11-11T19:53:41.491Z,17.57
2018-11-11T19:56:18.149Z,17.50
2018-11-11T19:58:53.738Z,15.97
2018-11-11T20:01:28.801Z,17.63
2018-11-11T20:04:04.083Z,25.43
2018-11-11T20:06:39.619Z,30.27
2018-11-11T20:09:15.255Z,46.60
2018-11-11T20:11:50.188Z,42.77
2018-11-11T20:14:28.278Z,32.13
2018-11-11T20:17:03.908Z,28.87
2018-11-11T20:19:38.478Z,22.80
2018-11-11T20:22:12.984Z,24.27
2018-11-11T20:24:47.724Z,25.57
2018-11-11T20:27:22.635Z,31.27
2018-11-11T20:29:58.574Z,29.23
2018-11-11T20:32:34.295Z,28.00
2018-11-11T20:35:11.999Z,25.73
2018-11-11T20:37:47.069Z,22.60
2018-11-11T20:40:23.600Z,21.43
2018-11-11T20:42:59.507Z,20.90
2018-11-11T20:45:35.050Z,19.13
2018-11-11T20:48:10.557Z,19.93
2018-11-11T20:50:47.442Z,17.90
2018-11-11T20:53:22.185Z,18.67
2018-11-11T20:55:59.155Z,22.17
2018-11-11T20:58:34.173Z,26.07
2018-11-11T21:01:09.110Z,25.57
2018-11-11T21:03:44.035Z,21.90
2018-11-11T21:06:20.810Z,21.60
2018-11-11T21:08:56.463Z,19.10
2018-11-11T21:11:32.485Z,18.93
2018-11-11T21:14:15.332Z,18.10
2018-11-11T21:16:49.985Z,17.83
2018-11-11T21:19:25.374Z,20.87
2018-11-11T21:22:00.654Z,20.87
2018-11-11T21:24:35.580Z,20.07
2018-11-11T21:27:10.373Z,29.17
2018-11-11T21:29:45.106Z,21.13
2018-11-11T21:32:21.276Z,19.13
2018-11-11T21:34:56.053Z,18.90
2018-11-11T21:37:31.869Z,17.93
2018-11-11T21:40:15.464Z,18.00
2018-11-11T21:42:51.239Z,18.20
2018-11-11T21:45:27.121Z,17.67
2018-11-11T21:48:02.892Z,19.37
2018-11-11T21:50:37.951Z,18.70
2018-11-11T21:53:32.516Z,17.83
2018-11-11T21:56:09.444Z,15.80
2018-11-11T21:58:44.294Z,15.83
2018-11-11T22:01:20.352Z,16.00
2018-11-11T22:03:54.992Z,14.33
2018-11-11T22:06:30.607Z,15.07
2018-11-11T22:09:08.247Z,15.30
2018-11-11T22:11:42.875Z,13.73
2018-11-11T22:14:17.488Z,14.17
2018-11-11T22:16:53.672Z,14.93
2018-11-11T22:19:28.542Z,16.83
2018-11-11T22:22:05.176Z,20.33
2018-11-11T22:24:43.181Z,17.53
2018-11-11T22:27:17.849Z,16.13
2018-11-11T22:29:54.235Z,14.20
2018-11-11T22:32:28.980Z,15.03
2018-11-11T22:35:03.900Z,17.77
2018-11-11T22:37:39.145Z,17.77
2018-11-11T22:40:14.289Z,17.10
2018-11-11T22:42:49.522Z,14.63
2018-11-11T22:45:24.856Z,14.90
2018-11-11T22:48:00.398Z,12.80
2018-11-11T22:50:35.177Z,12.97
2018-11-11T22:53:10.123Z,13.57
2018-11-11T22:55:45.040Z,12.33
2018-11-11T22:58:19.610Z,13.67
2018-11-11T23:01:00.516Z,15.47
2018-11-11T23:03:36.807Z,16.40
2018-11-11T23:06:11.339Z,15.80
2018-11-11T23:08:47.197Z,16.13
2018-11-11T23:11:22.619Z,16.67
2018-11-11T23:13:58.542Z,16.33
2018-11-11T23:16:35.011Z,17.90
2018-11-11T23:19:13.140Z,17.20
2018-11-11T23:21:47.827Z,15.57
2018-11-11T23:24:23.563Z,15.33
2018-11-11T23:26:58.330Z,14.67
2018-11-11T23:29:33.902Z,14.83
2018-11-11T23:32:11.204Z,15.30
2018-11-11T23:34:46.311Z,17.20
2018-11-11T23:37:21.123Z,18.20
2018-11-11T23:39:56.078Z,17.53
2018-11-11T23:42:30.637Z,17.70
2018-11-11T23:45:05.690Z,15.80
2018-11-11T23:47:43.270Z,15.57
2018-11-11T23:50:19.337Z,16.17
2018-11-11T23:52:53.862Z,16.30
2018-11-11T23:55:29.004Z,16.20
2018-11-11T23:58:04.238Z,15.57
